sensor_id;sensor_type;location;lat;lon;timestamp;pressure;altitude;pressure_sealevel;temperature;humidity
6833;BME280;3454;42.654;23.378;2024-02-26T00:01:15;63967.38;;;9.78;100.00
6833;BME280;3454;42.654;23.378;2024-02-26T00:03:41;63980.50;;;9.90;100.00
6833;BME280;3454;42.654;23.378;2024-02-26T00:06:07;63904.84;;;9.18;100.00
6833;BME280;3454;42.654;23.378;2024-02-26T00:08:33;63848.25;;;8.69;100.00
6833;BME280;3454;42.654;23.378;2024-02-26T00:10:58;63851.19;;;8.74;100.00
6833;BME280;3454;42.654;23.378;2024-02-26T00:13:24;63870.97;;;8.87;100.00
6833;BME280;3454;42.654;23.378;2024-02-26T00:15:50;63919.28;;;9.34;100.00
6833;BME280;3454;42.654;23.378;2024-02-26T00:18:15;63935.91;;;9.52;100.00
6833;BME280;3454;42.654;23.378;2024-02-26T00:20:41;63958.09;;;9.70;100.00
6833;BME280;3454;42.654;23.378;2024-02-26T00:23:08;63948.03;;;9.58;100.00
6833;BME280;3454;42.654;23.378;2024-02-26T00:25:35;63888.22;;;9.01;100.00
6833;BME280;3454;42.654;23.378;2024-02-26T00:28:01;63842.78;;;8.64;100.00
6833;BME280;3454;42.654;23.378;2024-02-26T00:30:27;63899.38;;;9.13;100.00
6833;BME280;3454;42.654;23.378;2024-02-26T00:32:52;63930.00;;;9.42;100.00
6833;BME280;3454;42.654;23.378;2024-02-26T00:35:18;63927.06;;;9.37;100.00
6833;BME280;3454;42.654;23.378;2024-02-26T00:37:46;63902.13;;;9.16;100.00
6833;BME280;3454;42.654;23.378;2024-02-26T00:40:11;63929.13;;;9.43;100.00
6833;BME280;3454;42.654;23.378;2024-02-26T00:42:37;63965.53;;;9.74;100.00
6833;BME280;3454;42.654;23.378;2024-02-26T00:45:03;63975.59;;;9.86;100.00
6833;BME280;3454;42.654;23.378;2024-02-26T00:47:29;63982.69;;;9.92;100.00
6833;BME280;3454;42.654;23.378;2024-02-26T00:49:55;63983.25;;;9.93;100.00
6833;BME280;3454;42.654;23.378;2024-02-26T00:52:20;63998.00;;;10.06;100.00
6833;BME280;3454;42.654;23.378;2024-02-26T00:54:46;64023.53;;;10.28;100.00
6833;BME280;3454;42.654;23.378;2024-02-26T00:57:11;64024.84;;;10.31;100.00
6833;BME280;3454;42.654;23.378;2024-02-26T00:59:37;64030.66;;;10.34;100.00
6833;BME280;3454;42.654;23.378;2024-02-26T01:02:02;64037.75;;;10.41;100.00
6833;BME280;3454;42.654;23.378;2024-02-26T01:04:30;64026.81;;;10.31;100.00
6833;BME280;3454;42.654;23.378;2024-02-26T01:06:56;64031.19;;;10.35;100.00
6833;BME280;3454;42.654;23.378;2024-02-26T01:09:21;64016.09;;;10.23;100.00
6833;BME280;3454;42.654;23.378;2024-02-26T01:11:47;64005.72;;;10.13;100.00
6833;BME280;3454;42.654;23.378;2024-02-26T01:14:12;64006.03;;;10.11;100.00
6833;BME280;3454;42.654;23.378;2024-02-26T01:16:38;64011.50;;;10.17;100.00
6833;BME280;3454;42.654;23.378;2024-02-26T01:19:04;64016.66;;;10.24;100.00
6833;BME280;3454;42.654;23.378;2024-02-26T01:21:30;64015.88;;;10.21;100.00
6833;BME280;3454;42.654;23.378;2024-02-26T01:23:55;64010.09;;;10.18;100.00
6833;BME280;3454;42.654;23.378;2024-02-26T01:26:21;64024.63;;;10.29;100.00
6833;BME280;3454;42.654;23.378;2024-02-26T01:28:47;64018.50;;;10.28;100.00
6833;BME280;3454;42.654;23.378;2024-02-26T01:31:13;64034.16;;;10.40;100.00
6833;BME280;3454;42.654;23.378;2024-02-26T01:33:39;64029.78;;;10.36;100.00
6833;BME280;3454;42.654;23.378;2024-02-26T01:36:04;64013.69;;;10.19;100.00
6833;BME280;3454;42.654;23.378;2024-02-26T01:38:31;64001.31;;;10.09;100.00
6833;BME280;3454;42.654;23.378;2024-02-26T01:40:56;63995.28;;;10.04;100.00
6833;BME280;3454;42.654;23.378;2024-02-26T01:43:22;63995.06;;;10.01;100.00
6833;BME280;3454;42.654;23.378;2024-02-26T01:45:48;63886.50;;;9.04;100.00
6833;BME280;3454;42.654;23.378;2024-02-26T01:48:13;63879.94;;;8.98;100.00
6833;BME280;3454;42.654;23.378;2024-02-26T01:50:40;63895.00;;;9.09;100.00
6833;BME280;3454;42.654;23.378;2024-02-26T01:53:06;63918.19;;;9.33;100.00
6833;BME280;3454;42.654;23.378;2024-02-26T01:55:33;63952.63;;;9.65;100.00
6833;BME280;3454;42.654;23.378;2024-02-26T01:57:59;63940.41;;;9.51;100.00
6833;BME280;3454;42.654;23.378;2024-02-26T02:00:25;63956.78;;;9.66;100.00
6833;BME280;3454;42.654;23.378;2024-02-26T02:02:51;63971.00;;;9.79;100.00
6833;BME280;3454;42.654;23.378;2024-02-26T02:05:20;63942.25;;;9.55;100.00
6833;BME280;3454;42.654;23.378;2024-02-26T02:07:46;63944.22;;;9.55;100.00
6833;BME280;3454;42.654;23.378;2024-02-26T02:10:15;63917.44;;;9.30;100.00
6833;BME280;3454;42.654;23.378;2024-02-26T02:12:40;63887.38;;;9.02;100.00
6833;BME280;3454;42.654;23.378;2024-02-26T02:15:06;63938.41;;;9.52;100.00
6833;BME280;3454;42.654;23.378;2024-02-26T02:17:32;63983.81;;;9.93;100.00
6833;BME280;3454;42.654;23.378;2024-02-26T02:19:58;63988.50;;;9.95;100.00
6833;BME280;3454;42.654;23.378;2024-02-26T02:22:24;63986.84;;;9.94;100.00
6833;BME280;3454;42.654;23.378;2024-02-26T02:24:51;63966.84;;;9.78;100.00
6833;BME280;3454;42.654;23.378;2024-02-26T02:27:18;63892.50;;;9.09;100.00
6833;BME280;3454;42.654;23.378;2024-02-26T02:29:44;63937.88;;;9.51;100.00
6833;BME280;3454;42.654;23.378;2024-02-26T02:32:10;63975.91;;;9.84;100.00
6833;BME280;3454;42.654;23.378;2024-02-26T02:34:36;63983.59;;;9.91;100.00
6833;BME280;3454;42.654;23.378;2024-02-26T02:37:01;64004.59;;;10.12;100.00
6833;BME280;3454;42.654;23.378;2024-02-26T02:39:27;64022.09;;;10.29;100.00
6833;BME280;3454;42.654;23.378;2024-02-26T02:41:52;64022.09;;;10.29;100.00
6833;BME280;3454;42.654;23.378;2024-02-26T02:44:18;64026.81;;;10.31;100.00
6833;BME280;3454;42.654;23.378;2024-02-26T02:46:44;64026.81;;;10.31;100.00
6833;BME280;3454;42.654;23.378;2024-02-26T02:49:10;64030.66;;;10.34;100.00
6833;BME280;3454;42.654;23.378;2024-02-26T02:51:36;64030.66;;;10.34;100.00
6833;BME280;3454;42.654;23.378;2024-02-26T02:54:02;64026.72;;;10.35;100.00
6833;BME280;3454;42.654;23.378;2024-02-26T02:56:27;64014.13;;;10.24;100.00
6833;BME280;3454;42.654;23.378;2024-02-26T02:58:53;64019.16;;;10.24;100.00
6833;BME280;3454;42.654;23.378;2024-02-26T03:01:19;64016.09;;;10.23;100.00
6833;BME280;3454;42.654;23.378;2024-02-26T03:03:44;64016.97;;;10.22;100.00
6833;BME280;3454;42.654;23.378;2024-02-26T03:06:10;64017.50;;;10.22;100.00
6833;BME280;3454;42.654;23.378;2024-02-26T03:08:35;64010.63;;;10.18;100.00
6833;BME280;3454;42.654;23.378;2024-02-26T03:11:04;64002.72;;;10.08;100.00
6833;BME280;3454;42.654;23.378;2024-02-26T03:13:29;63979.97;;;9.90;100.00
6833;BME280;3454;42.654;23.378;2024-02-26T03:15:55;63892.28;;;9.07;100.00
6833;BME280;3454;42.654;23.378;2024-02-26T03:18:20;63931.09;;;9.43;100.00
6833;BME280;3454;42.654;23.378;2024-02-26T03:20:46;63954.59;;;9.64;100.00
6833;BME280;3454;42.654;23.378;2024-02-26T03:23:12;63939.75;;;9.55;100.00
6833;BME280;3454;42.654;23.378;2024-02-26T03:25:42;63914.16;;;9.27;100.00
6833;BME280;3454;42.654;23.378;2024-02-26T03:28:07;63902.56;;;9.21;100.00
6833;BME280;3454;42.654;23.378;2024-02-26T03:30:33;63957.56;;;9.69;100.00
6833;BME280;3454;42.654;23.378;2024-02-26T03:32:59;63975.06;;;9.85;100.00
6833;BME280;3454;42.654;23.378;2024-02-26T03:35:25;63994.41;;;10.05;100.00
6833;BME280;3454;42.654;23.378;2024-02-26T03:37:51;64010.63;;;10.18;100.00
6833;BME280;3454;42.654;23.378;2024-02-26T03:40:17;64008.97;;;10.17;100.00
6833;BME280;3454;42.654;23.378;2024-02-26T03:42:44;63972.88;;;9.83;100.00
6833;BME280;3454;42.654;23.378;2024-02-26T03:45:10;63964.97;;;9.74;100.00
6833;BME280;3454;42.654;23.378;2024-02-26T03:47:37;63982.47;;;9.90;100.00
6833;BME280;3454;42.654;23.378;2024-02-26T03:50:04;63940.06;;;9.53;100.00
6833;BME280;3454;42.654;23.378;2024-02-26T03:52:30;63973.94;;;9.84;100.00
6833;BME280;3454;42.654;23.378;2024-02-26T03:54:55;63988.19;;;9.97;100.00
6833;BME280;3454;42.654;23.378;2024-02-26T03:57:21;63984.34;;;9.94;100.00
6833;BME280;3454;42.654;23.378;2024-02-26T03:59:46;64016.97;;;10.22;100.00
6833;BME280;3454;42.654;23.378;2024-02-26T04:02:12;64021.56;;;10.28;100.00
6833;BME280;3454;42.654;23.378;2024-02-26T04:04:37;64019.91;;;10.27;100.00
6833;BME280;3454;42.654;23.378;2024-02-26T04:07:03;63984.88;;;9.94;100.00
6833;BME280;3454;42.654;23.378;2024-02-26T04:09:31;64007.13;;;10.12;100.00
6833;BME280;3454;42.654;23.378;2024-02-26T04:11:56;63990.69;;;9.97;100.00
6833;BME280;3454;42.654;23.378;2024-02-26T04:14:22;63977.44;;;9.90;100.00
6833;BME280;3454;42.654;23.378;2024-02-26T04:16:47;63956.47;;;9.68;100.00
6833;BME280;3454;42.654;23.378;2024-02-26T04:19:16;63954.03;;;9.64;100.00
6833;BME280;3454;42.654;23.378;2024-02-26T04:21:43;64012.28;;;10.20;100.00
6833;BME280;3454;42.654;23.378;2024-02-26T04:24:08;63999.44;;;10.05;100.00
6833;BME280;3454;42.654;23.378;2024-02-26T04:26:34;64001.63;;;10.07;100.00
6833;BME280;3454;42.654;23.378;2024-02-26T04:29:00;63965.22;;;9.76;100.00
6833;BME280;3454;42.654;23.378;2024-02-26T04:31:26;63966.63;;;9.75;100.00
6833;BME280;3454;42.654;23.378;2024-02-26T04:33:52;63966.63;;;9.75;100.00
6833;BME280;3454;42.654;23.378;2024-02-26T04:36:18;63978.09;;;9.86;100.00
6833;BME280;3454;42.654;23.378;2024-02-26T04:38:44;63963.25;;;9.77;100.00
6833;BME280;3454;42.654;23.378;2024-02-26T04:41:09;63967.72;;;9.76;100.00
6833;BME280;3454;42.654;23.378;2024-02-26T04:43:35;63948.25;;;9.61;100.00
6833;BME280;3454;42.654;23.378;2024-02-26T04:46:07;63949.91;;;9.62;100.00
6833;BME280;3454;42.654;23.378;2024-02-26T04:48:34;63944.78;;;9.55;100.00
6833;BME280;3454;42.654;23.378;2024-02-26T04:51:00;63963.25;;;9.77;100.00
6833;BME280;3454;42.654;23.378;2024-02-26T04:53:25;63952.09;;;9.64;100.00
6833;BME280;3454;42.654;23.378;2024-02-26T04:55:51;63955.16;;;9.65;100.00
6833;BME280;3454;42.654;23.378;2024-02-26T04:58:17;63958.41;;;9.68;100.00
6833;BME280;3454;42.654;23.378;2024-02-26T05:00:43;63957.88;;;9.67;100.00
6833;BME280;3454;42.654;23.378;2024-02-26T05:03:09;63955.69;;;9.65;100.00
6833;BME280;3454;42.654;23.378;2024-02-26T05:05:39;63951.66;;;9.59;100.00
6833;BME280;3454;42.654;23.378;2024-02-26T05:08:05;63932.72;;;9.44;100.00
6833;BME280;3454;42.654;23.378;2024-02-26T05:10:31;63946.41;;;9.57;100.00
6833;BME280;3454;42.654;23.378;2024-02-26T05:12:57;63957.00;;;9.69;100.00
6833;BME280;3454;42.654;23.378;2024-02-26T05:15:22;63948.59;;;9.59;100.00
6833;BME280;3454;42.654;23.378;2024-02-26T05:17:48;63955.69;;;9.65;100.00
6833;BME280;3454;42.654;23.378;2024-02-26T05:20:14;63942.03;;;9.53;100.00
6833;BME280;3454;42.654;23.378;2024-02-26T05:22:39;63935.69;;;9.49;100.00
6833;BME280;3454;42.654;23.378;2024-02-26T05:25:05;63925.63;;;9.38;100.00
6833;BME280;3454;42.654;23.378;2024-02-26T05:27:31;63937.09;;;9.48;100.00
6833;BME280;3454;42.654;23.378;2024-02-26T05:29:56;63938.22;;;9.49;100.00
6833;BME280;3454;42.654;23.378;2024-02-26T05:32:22;63955.69;;;9.65;100.00
6833;BME280;3454;42.654;23.378;2024-02-26T05:34:47;63954.03;;;9.64;100.00
6833;BME280;3454;42.654;23.378;2024-02-26T05:37:13;63923.97;;;9.36;100.00
6833;BME280;3454;42.654;23.378;2024-02-26T05:39:38;63952.63;;;9.65;100.00
6833;BME280;3454;42.654;23.378;2024-02-26T05:42:04;63979.22;;;9.87;100.00
6833;BME280;3454;42.654;23.378;2024-02-26T05:44:30;63989.81;;;9.99;100.00
6833;BME280;3454;42.654;23.378;2024-02-26T05:46:56;63990.69;;;9.97;100.00
6833;BME280;3454;42.654;23.378;2024-02-26T05:49:22;63979.63;;;9.92;100.00
6833;BME280;3454;42.654;23.378;2024-02-26T05:51:48;63984.88;;;9.94;100.00
6833;BME280;3454;42.654;23.378;2024-02-26T05:54:13;63983.59;;;9.91;100.00
6833;BME280;3454;42.654;23.378;2024-02-26T05:56:42;63995.59;;;10.02;100.00
6833;BME280;3454;42.654;23.378;2024-02-26T05:59:08;63996.16;;;10.02;100.00
6833;BME280;3454;42.654;23.378;2024-02-26T06:01:33;64004.59;;;10.12;100.00
6833;BME280;3454;42.654;23.378;2024-02-26T06:03:59;64007.66;;;10.13;100.00
6833;BME280;3454;42.654;23.378;2024-02-26T06:06:25;63987.84;;;9.99;100.00
6833;BME280;3454;42.654;23.378;2024-02-26T06:08:50;63965.75;;;9.77;100.00
6833;BME280;3454;42.654;23.378;2024-02-26T06:11:16;63973.06;;;9.86;100.00
6833;BME280;3454;42.654;23.378;2024-02-26T06:13:42;63995.06;;;10.01;100.00
6833;BME280;3454;42.654;23.378;2024-02-26T06:16:08;63986.31;;;9.93;100.00
6833;BME280;3454;42.654;23.378;2024-02-26T06:18:33;63998.00;;;10.06;100.00
6833;BME280;3454;42.654;23.378;2024-02-26T06:21:00;63992.88;;;9.99;100.00
6833;BME280;3454;42.654;23.378;2024-02-26T06:23:25;63988.72;;;9.98;100.00
6833;BME280;3454;42.654;23.378;2024-02-26T06:25:52;64006.56;;;10.12;100.00
6833;BME280;3454;42.654;23.378;2024-02-26T06:28:17;64003.28;;;10.09;100.00
6833;BME280;3454;42.654;23.378;2024-02-26T06:30:43;64012.59;;;10.18;100.00
6833;BME280;3454;42.654;23.378;2024-02-26T06:33:09;64017.97;;;10.27;100.00
6833;BME280;3454;42.654;23.378;2024-02-26T06:35:34;64025.19;;;10.29;100.00
6833;BME280;3454;42.654;23.378;2024-02-26T06:38:00;64026.81;;;10.31;100.00
6833;BME280;3454;42.654;23.378;2024-02-26T06:40:25;64022.44;;;10.27;100.00
6833;BME280;3454;42.654;23.378;2024-02-26T06:42:51;64005.16;;;10.13;100.00
6833;BME280;3454;42.654;23.378;2024-02-26T06:45:17;64005.72;;;10.13;100.00
6833;BME280;3454;42.654;23.378;2024-02-26T06:47:44;64020.69;;;10.30;100.00
6833;BME280;3454;42.654;23.378;2024-02-26T06:50:12;64029.00;;;10.33;100.00
6833;BME280;3454;42.654;23.378;2024-02-26T06:52:39;64031.75;;;10.35;100.00
6833;BME280;3454;42.654;23.378;2024-02-26T06:55:05;64026.16;;;10.35;100.00
6833;BME280;3454;42.654;23.378;2024-02-26T06:57:33;64029.78;;;10.36;100.00
6833;BME280;3454;42.654;23.378;2024-02-26T07:00:00;64028.16;;;10.34;100.00
6833;BME280;3454;42.654;23.378;2024-02-26T07:02:25;64022.66;;;10.29;100.00
6833;BME280;3454;42.654;23.378;2024-02-26T07:04:51;64021.56;;;10.28;100.00
6833;BME280;3454;42.654;23.378;2024-02-26T07:07:16;64029.78;;;10.36;100.00
6833;BME280;3454;42.654;23.378;2024-02-26T07:09:44;64031.97;;;10.38;100.00
6833;BME280;3454;42.654;23.378;2024-02-26T07:12:09;64033.38;;;10.37;100.00
6833;BME280;3454;42.654;23.378;2024-02-26T07:14:35;64048.38;;;10.53;100.00
6833;BME280;3454;42.654;23.378;2024-02-26T07:17:03;64039.63;;;10.45;100.00
6833;BME280;3454;42.654;23.378;2024-02-26T07:19:28;64027.59;;;10.34;100.00
6833;BME280;3454;42.654;23.378;2024-02-26T07:21:54;64026.47;;;10.33;100.00
6833;BME280;3454;42.654;23.378;2024-02-26T07:24:19;64032.84;;;10.36;100.00
6833;BME280;3454;42.654;23.378;2024-02-26T07:26:44;64038.53;;;10.44;100.00
6833;BME280;3454;42.654;23.378;2024-02-26T07:29:10;64041.06;;;10.44;100.00
6833;BME280;3454;42.654;23.378;2024-02-26T07:31:35;64047.28;;;10.52;100.00
6833;BME280;3454;42.654;23.378;2024-02-26T07:34:01;64063.03;;;10.71;100.00
6833;BME280;3454;42.654;23.378;2024-02-26T07:36:26;64068.06;;;10.71;100.00
6833;BME280;3454;42.654;23.378;2024-02-26T07:38:52;64064.03;;;10.65;100.00
6833;BME280;3454;42.654;23.378;2024-02-26T07:41:20;64088.13;;;10.87;100.00
6833;BME280;3454;42.654;23.378;2024-02-26T07:43:45;64091.06;;;10.92;100.00
6833;BME280;3454;42.654;23.378;2024-02-26T07:46:11;64092.50;;;10.91;100.00
6833;BME280;3454;42.654;23.378;2024-02-26T07:48:38;64104.53;;;11.02;100.00
6833;BME280;3454;42.654;23.378;2024-02-26T07:51:04;64102.03;;;11.02;100.00
6833;BME280;3454;42.654;23.378;2024-02-26T07:53:30;64119.00;;;11.18;100.00
6833;BME280;3454;42.654;23.378;2024-02-26T07:55:56;64133.03;;;11.28;100.00
6833;BME280;3454;42.654;23.378;2024-02-26T07:58:23;64126.66;;;11.25;100.00
6833;BME280;3454;42.654;23.378;2024-02-26T08:00:49;64150.78;;;11.47;100.00
6833;BME280;3454;42.654;23.378;2024-02-26T08:03:15;64146.91;;;11.43;100.00
6833;BME280;3454;42.654;23.378;2024-02-26T08:05:42;64163.91;;;11.59;100.00
6833;BME280;3454;42.654;23.378;2024-02-26T08:08:08;64165.34;;;11.58;100.00
6833;BME280;3454;42.654;23.378;2024-02-26T08:10:35;64166.09;;;11.61;100.00
6833;BME280;3454;42.654;23.378;2024-02-26T08:13:01;64164.47;;;11.59;100.00
6833;BME280;3454;42.654;23.378;2024-02-26T08:15:34;64155.69;;;11.51;100.00
6833;BME280;3454;42.654;23.378;2024-02-26T08:18:01;64160.06;;;11.55;100.00
6833;BME280;3454;42.654;23.378;2024-02-26T08:20:30;64177.63;;;11.71;100.00
6833;BME280;3454;42.654;23.378;2024-02-26T08:22:56;64197.03;;;11.92;100.00
6833;BME280;3454;42.654;23.378;2024-02-26T08:25:23;64191.00;;;11.86;100.00
6833;BME280;3454;42.654;23.378;2024-02-26T08:27:48;64205.59;;;11.97;100.00
6833;BME280;3454;42.654;23.378;2024-02-26T08:30:15;64213.47;;;12.07;100.00
6833;BME280;3454;42.654;23.378;2024-02-26T08:32:51;64213.03;;;12.02;100.00
6833;BME280;3454;42.654;23.378;2024-02-26T08:35:18;64214.69;;;12.03;100.00
6833;BME280;3454;42.654;23.378;2024-02-26T08:37:47;64229.38;;;12.21;100.00
6833;BME280;3454;42.654;23.378;2024-02-26T08:40:13;64239.56;;;12.28;100.00
6833;BME280;3454;42.654;23.378;2024-02-26T08:42:39;64253.03;;;12.38;100.00
6833;BME280;3454;42.654;23.378;2024-02-26T08:45:05;64263.69;;;12.50;100.00
6833;BME280;3454;42.654;23.378;2024-02-26T08:47:31;64265.53;;;12.54;100.00
6833;BME280;3454;42.654;23.378;2024-02-26T08:49:57;64274.66;;;12.60;100.00
6833;BME280;3454;42.654;23.378;2024-02-26T08:52:23;64272.66;;;12.61;100.00
6833;BME280;3454;42.654;23.378;2024-02-26T08:54:56;64285.06;;;12.70;100.00
6833;BME280;3454;42.654;23.378;2024-02-26T08:57:22;64280.47;;;12.63;100.00
6833;BME280;3454;42.654;23.378;2024-02-26T08:59:48;64292.19;;;12.77;100.00
6833;BME280;3454;42.654;23.378;2024-02-26T09:02:13;64295.81;;;12.78;100.00
6833;BME280;3454;42.654;23.378;2024-02-26T09:04:39;64307.03;;;12.90;100.00
6833;BME280;3454;42.654;23.378;2024-02-26T09:07:04;64298.25;;;12.82;100.00
6833;BME280;3454;42.654;23.378;2024-02-26T09:09:30;64324.03;;;13.06;100.00
6833;BME280;3454;42.654;23.378;2024-02-26T09:11:55;64326.78;;;13.08;100.00
6833;BME280;3454;42.654;23.378;2024-02-26T09:14:21;64324.81;;;13.09;100.00
6833;BME280;3454;42.654;23.378;2024-02-26T09:16:47;64322.41;;;13.04;100.00
6833;BME280;3454;42.654;23.378;2024-02-26T09:19:18;64312.50;;;12.95;100.00
6833;BME280;3454;42.654;23.378;2024-02-26T09:21:46;64316.88;;;12.99;100.00
6833;BME280;3454;42.654;23.378;2024-02-26T09:24:12;64308.09;;;12.91;100.00
6833;BME280;3454;42.654;23.378;2024-02-26T09:26:38;64336.31;;;13.19;100.00
6833;BME280;3454;42.654;23.378;2024-02-26T09:29:05;64360.81;;;13.39;100.00
6833;BME280;3454;42.654;23.378;2024-02-26T09:31:31;64364.44;;;13.40;94.76
6833;BME280;3454;42.654;23.378;2024-02-26T09:33:57;64341.03;;;13.21;95.76
6833;BME280;3454;42.654;23.378;2024-02-26T09:36:22;64344.00;;;13.26;94.16
6833;BME280;3454;42.654;23.378;2024-02-26T09:38:49;64357.53;;;13.36;93.32
6833;BME280;3454;42.654;23.378;2024-02-26T09:41:15;64351.47;;;13.31;92.32
6833;BME280;3454;42.654;23.378;2024-02-26T09:43:46;64352.25;;;13.34;96.10
6833;BME280;3454;42.654;23.378;2024-02-26T09:46:14;64372.34;;;13.50;96.44
6833;BME280;3454;42.654;23.378;2024-02-26T09:48:42;64377.81;;;13.55;93.75
6833;BME280;3454;42.654;23.378;2024-02-26T09:51:10;64364.09;;;13.42;89.63
6833;BME280;3454;42.654;23.378;2024-02-26T09:53:38;64374.53;;;13.52;91.41
6833;BME280;3454;42.654;23.378;2024-02-26T09:56:07;64369.25;;;13.49;90.96
6833;BME280;3454;42.654;23.378;2024-02-26T09:58:33;64373.97;;;13.52;90.06
6833;BME280;3454;42.654;23.378;2024-02-26T10:01:02;64370.34;;;13.51;89.23
6833;BME280;3454;42.654;23.378;2024-02-26T10:03:34;64374.53;;;13.52;88.31
6833;BME280;3454;42.654;23.378;2024-02-26T10:06:04;64350.16;;;13.27;89.68
6833;BME280;3454;42.654;23.378;2024-02-26T10:08:31;64351.47;;;13.31;90.27
6833;BME280;3454;42.654;23.378;2024-02-26T10:10:57;64343.25;;;13.23;89.02
6833;BME280;3454;42.654;23.378;2024-02-26T10:13:23;64344.56;;;13.27;90.01
6833;BME280;3454;42.654;23.378;2024-02-26T10:15:49;64345.78;;;13.23;88.22
6833;BME280;3454;42.654;23.378;2024-02-26T10:18:25;64330.06;;;13.11;89.47
6833;BME280;3454;42.654;23.378;2024-02-26T10:21:01;64345.09;;;13.27;90.12
6833;BME280;3454;42.654;23.378;2024-02-26T10:23:28;64361.91;;;13.40;88.43
6833;BME280;3454;42.654;23.378;2024-02-26T10:25:54;64372.53;;;13.53;89.88
6833;BME280;3454;42.654;23.378;2024-02-26T10:28:22;64364.66;;;13.43;87.78
6833;BME280;3454;42.654;23.378;2024-02-26T10:30:48;64375.63;;;13.53;90.96
6833;BME280;3454;42.654;23.378;2024-02-26T10:33:15;64380.22;;;13.60;84.50
6833;BME280;3454;42.654;23.378;2024-02-26T10:35:47;64365.53;;;13.41;85.86
6833;BME280;3454;42.654;23.378;2024-02-26T10:38:13;64390.44;;;13.67;89.21
6833;BME280;3454;42.654;23.378;2024-02-26T10:40:39;64384.19;;;13.59;86.13
6833;BME280;3454;42.654;23.378;2024-02-26T10:43:04;64388.81;;;13.65;87.19
6833;BME280;3454;42.654;23.378;2024-02-26T10:45:31;64399.78;;;13.75;86.54
6833;BME280;3454;42.654;23.378;2024-02-26T10:47:57;64393.06;;;13.74;84.92
6833;BME280;3454;42.654;23.378;2024-02-26T10:50:24;64402.19;;;13.80;84.22
6833;BME280;3454;42.654;23.378;2024-02-26T10:52:50;64401.44;;;13.77;84.45
6833;BME280;3454;42.654;23.378;2024-02-26T10:55:21;64423.94;;;13.97;83.28
6833;BME280;3454;42.654;23.378;2024-02-26T10:57:52;64416.47;;;13.93;83.65
6833;BME280;3454;42.654;23.378;2024-02-26T11:00:18;64434.38;;;14.07;83.29
6833;BME280;3454;42.654;23.378;2024-02-26T11:02:45;64455.47;;;14.28;82.34
6833;BME280;3454;42.654;23.378;2024-02-26T11:05:12;64454.16;;;14.25;81.28
6833;BME280;3454;42.654;23.378;2024-02-26T11:07:39;64462.63;;;14.35;80.47
6833;BME280;3454;42.654;23.378;2024-02-26T11:10:07;64464.81;;;14.37;83.14
6833;BME280;3454;42.654;23.378;2024-02-26T11:12:34;64458.00;;;14.28;79.68
6833;BME280;3454;42.654;23.378;2024-02-26T11:15:03;64452.28;;;14.21;81.15
6833;BME280;3454;42.654;23.378;2024-02-26T11:17:30;64465.50;;;14.33;78.27
6833;BME280;3454;42.654;23.378;2024-02-26T11:19:58;64450.84;;;14.22;78.50
6833;BME280;3454;42.654;23.378;2024-02-26T11:22:27;64433.81;;;14.06;77.81
6833;BME280;3454;42.654;23.378;2024-02-26T11:24:56;64436.22;;;14.11;77.70
6833;BME280;3454;42.654;23.378;2024-02-26T11:27:38;64426.34;;;14.02;79.28
6833;BME280;3454;42.654;23.378;2024-02-26T11:30:09;64438.97;;;14.13;78.58
6833;BME280;3454;42.654;23.378;2024-02-26T11:32:36;64419.75;;;13.96;78.79
6833;BME280;3454;42.654;23.378;2024-02-26T11:35:04;64428.88;;;14.02;77.23
6833;BME280;3454;42.654;23.378;2024-02-26T11:37:30;64406.56;;;13.84;78.17
6833;BME280;3454;42.654;23.378;2024-02-26T11:39:59;64423.94;;;13.97;78.42
6833;BME280;3454;42.654;23.378;2024-02-26T11:42:26;64417.56;;;13.94;78.59
6833;BME280;3454;42.654;23.378;2024-02-26T11:44:52;64425.25;;;14.01;77.75
6833;BME280;3454;42.654;23.378;2024-02-26T11:47:19;64434.38;;;14.07;76.62
6833;BME280;3454;42.654;23.378;2024-02-26T11:49:46;64449.75;;;14.21;77.71
6833;BME280;3454;42.654;23.378;2024-02-26T11:52:13;64453.59;;;14.24;74.84
6833;BME280;3454;42.654;23.378;2024-02-26T11:57:28;64431.84;;;14.07;74.89
6833;BME280;3454;42.654;23.378;2024-02-26T12:00:10;64431.63;;;14.04;75.11
6833;BME280;3454;42.654;23.378;2024-02-26T12:02:46;64431.28;;;14.06;75.00
6833;BME280;3454;42.654;23.378;2024-02-26T12:05:20;64428.88;;;14.02;74.18
6833;BME280;3454;42.654;23.378;2024-02-26T12:07:53;64436.56;;;14.09;73.96
6833;BME280;3454;42.654;23.378;2024-02-26T12:10:24;64449.97;;;14.23;74.27
6833;BME280;3454;42.654;23.378;2024-02-26T12:12:58;64454.69;;;14.25;72.08
6833;BME280;3454;42.654;23.378;2024-02-26T12:15:33;64470.84;;;14.43;72.25
6833;BME280;3454;42.654;23.378;2024-02-26T12:18:07;64490.09;;;14.60;71.97
6833;BME280;3454;42.654;23.378;2024-02-26T12:20:33;64514.63;;;14.80;70.20
6833;BME280;3454;42.654;23.378;2024-02-26T12:23:01;64519.75;;;14.87;69.48
6833;BME280;3454;42.654;23.378;2024-02-26T12:25:29;64542.09;;;15.05;68.63
6833;BME280;3454;42.654;23.378;2024-02-26T12:27:55;64541.19;;;15.07;66.75
6833;BME280;3454;42.654;23.378;2024-02-26T12:30:21;64541.75;;;15.07;67.73
6833;BME280;3454;42.654;23.378;2024-02-26T12:32:51;64539.53;;;15.05;67.86
6833;BME280;3454;42.654;23.378;2024-02-26T12:35:17;64556.03;;;15.21;66.89
6833;BME280;3454;42.654;23.378;2024-02-26T12:37:43;64564.50;;;15.31;65.64
6833;BME280;3454;42.654;23.378;2024-02-26T12:40:10;64587.94;;;15.50;67.56
6833;BME280;3454;42.654;23.378;2024-02-26T12:42:36;64625.69;;;15.82;64.67
6833;BME280;3454;42.654;23.378;2024-02-26T12:45:10;64656.72;;;16.13;62.78
6833;BME280;3454;42.654;23.378;2024-02-26T12:47:39;64710.34;;;16.64;61.71
6833;BME280;3454;42.654;23.378;2024-02-26T12:50:06;64715.63;;;16.66;59.10
6833;BME280;3454;42.654;23.378;2024-02-26T12:52:34;64695.25;;;16.48;59.41
6833;BME280;3454;42.654;23.378;2024-02-26T12:55:01;64706.06;;;16.55;59.30
6833;BME280;3454;42.654;23.378;2024-02-26T12:57:35;64700.56;;;16.50;59.14
6833;BME280;3454;42.654;23.378;2024-02-26T13:00:03;64682.56;;;16.36;60.01
6833;BME280;3454;42.654;23.378;2024-02-26T13:02:35;64667.72;;;16.23;59.07
6833;BME280;3454;42.654;23.378;2024-02-26T13:05:05;64656.50;;;16.10;59.51
6833;BME280;3454;42.654;23.378;2024-02-26T13:07:33;64631.19;;;15.87;59.31